Midway City, CA (92655)

12:53 PM PST on December 20, 2014 (GMT -0800)
Goldenwest/Heil | Change Station
CLOSE
Current Station
Personal Weather Station
Location: Huntington Beach, CA
Elevation: 20 ft
Nearby Weather Stations
Active Advisory: Beach Hazard Statement

Elev 20 ft 33.72 °N, 118.01 °W | Updated 6 seconds ago

Overcast
Overcast
63.3 °F
Feels Like 63.3 °F
N
0.2
Wind Variable Wind from SSW
Gusts 2.5 mph

Today
High -- | Low -- °F
--% Chance of Precip.
Yesterday
High -- | Low -- °F
Precip. -- in
6:52 AM 4:46 PM
Waning Crescent, 2% visible
Pressure 30.17 in
Visibility 10.0 miles
Clouds Mostly Cloudy 2600 ft
Overcast 18000 ft
Dew Point 54 °F
Humidity 71%
Rainfall 0.00 in
Snow Depth Not available.
UV 2.0 out of 12
Pollen 4.00 out of 12
Air Quality Not available.
Flu Activity Not available.
METAR KSLI 201958Z 34003KT 10SM BKN026 OVC180 16/11 A3016 RMK AO2A SLP216 T01640106

More Conditions Fewer Conditions

Pressure 30.17 in
Visibility 10.0 miles
Clouds Mostly Cloudy 2600 ft
Overcast 18000 ft
Dew Point 54 °F
Humidity 71%
Rainfall 0.00 in
Snow Depth Not available.
UV 2.0 out of 12
Pollen 4.00 out of 12
Air Quality Not available.
Flu Activity Not available.
METAR KSLI 201958Z 34003KT 10SM BKN026 OVC180 16/11 A3016 RMK AO2A SLP216 T01640106

More Conditions Fewer Conditions

10-Day Weather Forecast

Almanac

Astronomy

Dec. 20, 2014 Rise Set
Actual Time
Civil Twilight
Nautical Twilight
Astronomical Twilight
Moon
Length of Visible Light
Length of Day
Tomorrow will be .
, % of the Moon is Illuminated

Today's Extremes

State Highs State Lows

Community

WunderPhotos

Upload Photos

1,779,271 photos uploaded!

WunderBlogs® & News

Nearby

Air Quality

  Air Quality AQ Index Pollutant
Not available.

Snow Depth

Station Depth Elevation

Earthquake Activity

City Distance Mag. Time & Date
Minimum magnitude displayed is 2.5.

Coastal Water Temperatures

Place Temperature

Nearby Weather Stations